createdAt,value
2022-11-28T00:02:24.524Z,3.00
2022-11-28T00:04:52.196Z,2.93
2022-11-28T00:07:19.428Z,3.20
2022-11-28T00:09:46.731Z,3.60
2022-11-28T00:12:13.376Z,2.80
2022-11-28T00:14:40.662Z,2.67
2022-11-28T00:17:07.600Z,2.80
2022-11-28T00:19:34.591Z,3.00
2022-11-28T00:22:01.571Z,2.83
2022-11-28T00:24:28.242Z,2.83
2022-11-28T00:26:55.235Z,2.60
2022-11-28T00:29:21.930Z,2.67
2022-11-28T00:31:48.763Z,3.17
2022-11-28T00:34:15.837Z,2.53
2022-11-28T00:36:46.521Z,2.43
2022-11-28T00:39:14.400Z,2.40
2022-11-28T00:41:41.144Z,3.67
2022-11-28T00:44:08.112Z,3.97
2022-11-28T00:46:34.768Z,4.10
2022-11-28T00:49:01.703Z,3.50
2022-11-28T00:51:31.271Z,3.20
2022-11-28T00:53:59.668Z,2.93
2022-11-28T00:56:32.733Z,3.73
2022-11-28T00:58:59.685Z,3.63
2022-11-28T01:01:26.287Z,3.80
2022-11-28T01:03:55.121Z,3.67
2022-11-28T01:06:27.700Z,3.30
2022-11-28T01:08:55.425Z,3.20
2022-11-28T01:11:22.983Z,2.70
2022-11-28T01:13:50.287Z,3.13
2022-11-28T01:16:17.427Z,3.10
2022-11-28T01:18:44.200Z,3.10
2022-11-28T01:21:11.416Z,3.63
2022-11-28T01:23:38.787Z,3.13
2022-11-28T01:26:08.531Z,3.33
2022-11-28T01:28:35.894Z,3.10
2022-11-28T01:31:08.675Z,3.23
2022-11-28T01:33:35.371Z,3.40
2022-11-28T01:36:02.796Z,3.20
2022-11-28T01:38:30.158Z,3.23
2022-11-28T01:40:57.611Z,3.43
2022-11-28T01:43:25.029Z,3.57
2022-11-28T01:45:52.848Z,4.43
2022-11-28T01:48:29.001Z,4.33
2022-11-28T01:51:03.844Z,4.03
2022-11-28T01:53:32.856Z,4.77
2022-11-28T01:56:06.352Z,4.97
2022-11-28T01:58:35.790Z,5.00
2022-11-28T02:01:04.042Z,4.73
2022-11-28T02:03:38.248Z,4.13
2022-11-28T02:06:05.502Z,4.87
2022-11-28T02:08:34.672Z,4.10
2022-11-28T02:11:04.331Z,3.97
2022-11-28T02:14:02.026Z,3.80
2022-11-28T02:17:05.783Z,3.40
2022-11-28T02:20:01.971Z,2.93
2022-11-28T02:22:43.655Z,3.40
2022-11-28T02:25:49.078Z,3.50
2022-11-28T02:28:34.998Z,3.10
2022-11-28T02:31:26.574Z,3.00
2022-11-28T02:34:01.028Z,3.67
2022-11-28T02:36:51.070Z,3.43
2022-11-28T02:39:31.014Z,3.40
2022-11-28T02:42:18.120Z,3.40
2022-11-28T02:44:54.571Z,3.50
2022-11-28T02:47:27.434Z,3.23
2022-11-28T02:50:12.061Z,3.43
2022-11-28T02:53:03.741Z,3.10
2022-11-28T02:55:31.543Z,3.20
2022-11-28T02:57:58.319Z,3.33
2022-11-28T03:00:32.132Z,3.47
2022-11-28T03:03:07.520Z,3.67
2022-11-28T03:06:09.676Z,3.47
2022-11-28T03:08:45.776Z,3.10
2022-11-28T03:11:40.315Z,3.60
2022-11-28T03:14:36.549Z,3.27
2022-11-28T03:17:21.779Z,2.77
2022-11-28T03:20:04.188Z,3.20
2022-11-28T03:22:44.771Z,2.63
2022-11-28T03:25:24.004Z,3.47
2022-11-28T03:28:03.361Z,3.33
2022-11-28T03:30:51.000Z,3.03
2022-11-28T03:33:18.948Z,3.67
2022-11-28T03:35:54.030Z,3.20
2022-11-28T03:38:24.684Z,3.30
2022-11-28T03:40:55.214Z,3.90
2022-11-28T03:43:30.917Z,3.63
2022-11-28T03:46:04.164Z,3.37
2022-11-28T03:48:34.848Z,3.57
2022-11-28T03:51:29.878Z,3.83
2022-11-28T03:54:08.926Z,3.33
2022-11-28T03:56:44.200Z,3.63
2022-11-28T03:59:16.727Z,3.53
2022-11-28T04:02:04.752Z,3.70
2022-11-28T04:04:54.208Z,3.80
2022-11-28T04:07:47.907Z,3.43
2022-11-28T04:10:38.177Z,3.40
2022-11-28T04:13:46.291Z,3.80
2022-11-28T04:16:34.808Z,3.67
2022-11-28T04:19:30.217Z,3.23
2022-11-28T04:22:18.640Z,3.27
2022-11-28T04:24:53.954Z,3.33
2022-11-28T04:27:27.180Z,3.83
2022-11-28T04:29:59.024Z,3.67
2022-11-28T04:32:28.215Z,3.00
2022-11-28T04:35:07.180Z,3.33
2022-11-28T04:37:37.068Z,3.63
2022-11-28T04:40:06.673Z,3.80
2022-11-28T04:42:41.459Z,4.27
2022-11-28T04:45:22.027Z,3.70
2022-11-28T04:47:48.990Z,4.03
2022-11-28T04:50:16.164Z,4.33
2022-11-28T04:52:55.668Z,4.33
2022-11-28T04:55:27.197Z,4.20
2022-11-28T04:58:02.548Z,4.60
2022-11-28T05:00:29.459Z,4.17
2022-11-28T05:02:57.138Z,4.47
2022-11-28T05:05:26.123Z,4.23
2022-11-28T05:07:53.647Z,4.37
2022-11-28T05:10:20.965Z,4.30
2022-11-28T05:12:47.927Z,4.30
2022-11-28T05:15:18.990Z,4.57
2022-11-28T05:17:46.804Z,4.67
2022-11-28T05:20:13.764Z,3.93
2022-11-28T05:22:40.598Z,4.53
2022-11-28T05:25:07.615Z,4.53
2022-11-28T05:27:34.420Z,4.40
2022-11-28T05:30:01.037Z,4.20
2022-11-28T05:32:31.821Z,4.57
2022-11-28T05:34:58.723Z,4.80
2022-11-28T05:37:25.939Z,4.57
2022-11-28T05:39:52.656Z,4.60
2022-11-28T05:42:19.428Z,4.63
2022-11-28T05:44:47.898Z,4.37
2022-11-28T05:47:15.763Z,4.57
2022-11-28T05:49:43.316Z,4.13
2022-11-28T05:52:10.174Z,4.73
2022-11-28T05:54:36.967Z,4.03
2022-11-28T05:57:06.386Z,4.30
2022-11-28T05:59:34.031Z,4.70
2022-11-28T06:02:00.846Z,5.30
2022-11-28T06:04:27.688Z,5.00
2022-11-28T06:06:55.042Z,5.23
2022-11-28T06:09:25.673Z,5.10
2022-11-28T06:11:53.106Z,4.63
2022-11-28T06:14:20.691Z,4.10
2022-11-28T06:16:47.482Z,4.43
2022-11-28T06:19:14.459Z,4.77
2022-11-28T06:21:41.387Z,4.57
2022-11-28T06:24:09.593Z,4.63
2022-11-28T06:26:36.333Z,7.63
2022-11-28T06:29:04.328Z,7.47
2022-11-28T06:31:31.206Z,6.07
2022-11-28T06:33:58.630Z,5.27
2022-11-28T06:36:26.407Z,4.63
2022-11-28T06:38:54.287Z,5.00
2022-11-28T06:41:22.861Z,4.53
2022-11-28T06:43:50.109Z,4.97
2022-11-28T06:46:21.452Z,4.57
2022-11-28T06:48:50.231Z,5.17
2022-11-28T06:51:17.831Z,4.87
2022-11-28T06:53:44.636Z,4.60
2022-11-28T06:56:14.428Z,4.93
2022-11-28T06:58:41.741Z,4.73
2022-11-28T07:01:13.124Z,4.77
2022-11-28T07:03:40.644Z,4.80
2022-11-28T07:06:08.581Z,4.63
2022-11-28T07:08:36.773Z,4.73
2022-11-28T07:11:15.712Z,4.37
2022-11-28T07:13:43.620Z,4.50
2022-11-28T07:16:16.060Z,4.17
2022-11-28T07:18:43.890Z,5.13
2022-11-28T07:21:11.223Z,5.13
2022-11-28T07:23:38.194Z,5.47
2022-11-28T07:26:05.754Z,6.27
2022-11-28T07:28:33.455Z,5.83
2022-11-28T07:31:14.681Z,6.13
2022-11-28T07:33:43.347Z,5.83
2022-11-28T07:36:24.972Z,6.27
2022-11-28T07:38:54.440Z,5.57
2022-11-28T07:41:26.242Z,5.77
2022-11-28T07:43:59.152Z,5.73
2022-11-28T07:46:26.876Z,5.50
2022-11-28T07:48:53.987Z,4.80
2022-11-28T07:51:27.375Z,5.03
2022-11-28T07:53:54.722Z,4.30
2022-11-28T07:56:25.547Z,5.43
2022-11-28T07:58:52.743Z,4.67
2022-11-28T08:01:22.342Z,4.93
2022-11-28T08:03:50.098Z,4.73
2022-11-28T08:06:18.364Z,5.43
2022-11-28T08:08:47.036Z,4.93
2022-11-28T08:11:16.691Z,4.90
2022-11-28T08:13:43.760Z,4.87
2022-11-28T08:16:19.787Z,5.00
2022-11-28T08:18:47.966Z,4.70
2022-11-28T08:21:26.896Z,4.63
2022-11-28T08:23:55.134Z,4.83
2022-11-28T08:26:29.015Z,5.00
2022-11-28T08:28:57.838Z,4.37
2022-11-28T08:31:27.699Z,5.00
2022-11-28T08:33:57.054Z,4.97
2022-11-28T08:36:23.935Z,5.23
2022-11-28T08:39:03.949Z,5.30
2022-11-28T08:41:37.627Z,5.63
2022-11-28T08:44:04.555Z,5.40
2022-11-28T08:46:31.266Z,5.13
2022-11-28T08:48:59.096Z,4.93
2022-11-28T08:51:25.898Z,5.53
2022-11-28T08:53:59.177Z,4.73
2022-11-28T08:56:26.991Z,5.20
2022-11-28T08:58:54.128Z,5.07
2022-11-28T09:01:23.245Z,5.50
2022-11-28T09:03:50.870Z,5.30
2022-11-28T09:06:20.527Z,5.03
2022-11-28T09:08:48.475Z,5.13
2022-11-28T09:11:18.677Z,5.27
2022-11-28T09:13:46.090Z,4.73
2022-11-28T09:16:14.332Z,5.83
2022-11-28T09:18:41.280Z,5.00
2022-11-28T09:21:10.744Z,5.00
2022-11-28T09:23:39.286Z,5.63
2022-11-28T09:26:15.388Z,5.30
2022-11-28T09:28:42.916Z,5.73
2022-11-28T09:31:10.125Z,5.37
2022-11-28T09:33:36.876Z,5.03
2022-11-28T09:36:09.339Z,5.27
2022-11-28T09:38:36.817Z,5.00
2022-11-28T09:41:04.702Z,5.40
2022-11-28T09:43:44.931Z,5.23
2022-11-28T09:46:18.262Z,5.33
2022-11-28T09:48:50.978Z,5.43
2022-11-28T09:51:51.123Z,4.63
2022-11-28T09:54:19.984Z,5.17
2022-11-28T09:56:48.938Z,5.33
2022-11-28T09:59:28.033Z,5.73
2022-11-28T10:02:12.082Z,4.97
2022-11-28T10:04:45.623Z,5.23
2022-11-28T10:07:43.300Z,4.77
2022-11-28T10:10:30.696Z,5.10
2022-11-28T10:13:09.983Z,5.70
2022-11-28T10:16:14.561Z,5.80
2022-11-28T10:18:59.315Z,4.70
2022-11-28T10:21:41.614Z,4.30
2022-11-28T10:24:16.047Z,3.63
2022-11-28T10:26:51.046Z,4.00
2022-11-28T10:29:48.778Z,3.40
2022-11-28T10:32:19.223Z,3.60
2022-11-28T10:35:05.867Z,3.87
2022-11-28T10:37:36.510Z,3.37
2022-11-28T10:40:25.811Z,3.57
2022-11-28T10:43:16.894Z,3.93
2022-11-28T10:45:57.649Z,4.03
2022-11-28T10:48:40.715Z,3.83
2022-11-28T10:51:26.804Z,4.60
2022-11-28T10:54:38.040Z,3.90
2022-11-28T10:57:31.184Z,3.80
2022-11-28T11:00:02.610Z,3.53
2022-11-28T11:02:38.397Z,4.40
2022-11-28T11:05:07.333Z,4.37
2022-11-28T11:07:34.286Z,4.40
2022-11-28T11:10:21.690Z,4.33
2022-11-28T11:12:52.403Z,3.97
2022-11-28T11:15:30.144Z,4.57
2022-11-28T11:17:57.494Z,4.40
2022-11-28T11:20:37.804Z,4.87
2022-11-28T11:23:18.287Z,4.40
2022-11-28T11:26:00.805Z,4.50
2022-11-28T11:28:47.086Z,4.67
2022-11-28T11:31:23.400Z,4.03
2022-11-28T11:34:11.890Z,4.40
2022-11-28T11:36:38.756Z,4.07
2022-11-28T11:39:12.611Z,4.80
2022-11-28T11:41:48.206Z,4.73
2022-11-28T11:44:14.848Z,4.40
2022-11-28T11:46:55.105Z,4.90
2022-11-28T11:49:35.229Z,4.50
2022-11-28T11:52:13.026Z,4.37
2022-11-28T11:55:19.127Z,3.70
2022-11-28T11:57:55.115Z,3.70
2022-11-28T12:00:26.322Z,4.03
2022-11-28T12:03:25.640Z,4.33
2022-11-28T12:06:14.249Z,4.30
2022-11-28T12:09:00.331Z,4.80
2022-11-28T12:11:33.839Z,4.03
2022-11-28T12:14:18.412Z,4.07
2022-11-28T12:17:47.377Z,4.23
2022-11-28T12:20:43.991Z,3.80
2022-11-28T12:23:32.979Z,4.30
2022-11-28T12:26:21.007Z,3.73
2022-11-28T12:29:13.090Z,4.17
2022-11-28T12:32:02.588Z,4.20
2022-11-28T12:34:49.328Z,3.90
2022-11-28T12:37:42.031Z,4.90
2022-11-28T12:40:35.408Z,4.10
2022-11-28T12:43:22.572Z,3.93
2022-11-28T12:45:58.212Z,4.53
2022-11-28T12:48:53.843Z,4.40
2022-11-28T12:51:34.047Z,4.80
2022-11-28T12:54:10.022Z,4.63
2022-11-28T12:56:42.900Z,5.77
2022-11-28T12:59:26.890Z,5.53
2022-11-28T13:02:18.352Z,4.90
2022-11-28T13:05:17.091Z,4.43
2022-11-28T13:08:08.545Z,4.73
2022-11-28T13:10:55.938Z,5.27
2022-11-28T13:13:33.452Z,4.37
2022-11-28T13:16:30.951Z,4.73
2022-11-28T13:19:05.751Z,4.57
2022-11-28T13:21:43.042Z,4.73
2022-11-28T13:24:31.418Z,4.53
2022-11-28T13:27:06.002Z,4.97
2022-11-28T13:29:52.319Z,4.83
2022-11-28T13:32:44.346Z,5.13
2022-11-28T13:35:17.146Z,4.70
2022-11-28T13:41:01.339Z,5.00
2022-11-28T13:43:59.062Z,5.73
2022-11-28T13:46:25.918Z,5.17
2022-11-28T13:49:20.240Z,5.77
2022-11-28T13:51:48.019Z,5.27
2022-11-28T13:54:17.847Z,5.50
2022-11-28T13:56:47.205Z,6.00
2022-11-28T13:59:20.959Z,4.80
2022-11-28T14:01:56.689Z,5.07
2022-11-28T14:04:23.815Z,5.97
2022-11-28T14:07:02.356Z,5.00
2022-11-28T14:10:03.144Z,4.90
2022-11-28T14:13:13.099Z,4.80
2022-11-28T14:16:25.025Z,5.30
2022-11-28T14:19:23.532Z,4.53
2022-11-28T14:21:59.094Z,4.57
2022-11-28T14:24:53.092Z,4.53
2022-11-28T14:27:33.408Z,5.07
2022-11-28T14:30:01.275Z,4.90
2022-11-28T14:32:40.344Z,5.13
2022-11-28T14:35:17.294Z,5.07
2022-11-28T14:37:55.397Z,4.77
2022-11-28T14:40:59.400Z,5.23
2022-11-28T14:43:49.725Z,4.60
2022-11-28T14:46:28.015Z,5.00
2022-11-28T14:48:58.186Z,5.13
2022-11-28T14:52:00.090Z,5.13
2022-11-28T14:54:42.110Z,5.23
2022-11-28T14:57:26.029Z,5.13
2022-11-28T14:59:55.471Z,5.13
2022-11-28T15:02:43.261Z,5.10
2022-11-28T15:05:19.148Z,5.90
2022-11-28T15:08:14.001Z,5.57
2022-11-28T15:10:54.867Z,5.40
2022-11-28T15:13:46.503Z,5.70
2022-11-28T15:16:17.121Z,5.30
2022-11-28T15:18:50.808Z,5.33
2022-11-28T15:21:19.709Z,5.40
2022-11-28T15:23:47.771Z,5.17
2022-11-28T15:26:26.634Z,5.27
2022-11-28T15:29:28.328Z,5.20
2022-11-28T15:31:57.752Z,5.43
2022-11-28T15:34:30.615Z,4.80
2022-11-28T15:37:03.677Z,5.47
2022-11-28T15:39:39.852Z,5.50
2022-11-28T15:42:19.850Z,5.57
2022-11-28T15:44:47.806Z,5.13
2022-11-28T15:47:22.076Z,5.37
2022-11-28T15:50:00.232Z,5.73
2022-11-28T15:52:27.691Z,6.40
2022-11-28T15:54:54.419Z,5.73
2022-11-28T15:57:25.395Z,5.50
2022-11-28T15:59:52.330Z,5.73
2022-11-28T16:02:35.594Z,5.57
2022-11-28T16:05:15.899Z,6.27
2022-11-28T16:07:44.458Z,5.67
2022-11-28T16:10:20.419Z,5.80
2022-11-28T16:12:47.809Z,5.57
2022-11-28T16:15:18.347Z,5.77
2022-11-28T16:17:45.118Z,7.60
2022-11-28T16:20:23.379Z,6.47
2022-11-28T16:22:50.226Z,6.10
2022-11-28T16:25:23.266Z,6.73
2022-11-28T16:27:53.260Z,6.23
2022-11-28T16:30:23.392Z,6.33
2022-11-28T16:32:51.743Z,5.97
2022-11-28T16:35:40.588Z,5.97
2022-11-28T16:38:23.603Z,6.10
2022-11-28T16:41:03.191Z,6.40
2022-11-28T16:43:39.349Z,6.33
2022-11-28T16:46:17.469Z,6.57
2022-11-28T16:48:58.886Z,5.93
2022-11-28T16:51:30.727Z,6.03
2022-11-28T16:53:59.650Z,6.40
2022-11-28T16:56:29.598Z,6.80
2022-11-28T16:59:11.451Z,6.70
2022-11-28T17:01:38.531Z,6.07
2022-11-28T17:04:05.507Z,6.27
2022-11-28T17:06:36.780Z,6.90
2022-11-28T17:09:09.190Z,6.60
2022-11-28T17:11:38.679Z,6.60
2022-11-28T17:14:11.765Z,6.70
2022-11-28T17:16:41.457Z,7.27
2022-11-28T17:19:08.596Z,9.97
2022-11-28T17:21:44.723Z,8.77
2022-11-28T17:24:23.216Z,12.70
2022-11-28T17:26:51.018Z,13.60
2022-11-28T17:29:18.987Z,16.30
2022-11-28T17:31:47.210Z,18.33
2022-11-28T17:34:19.843Z,17.73
2022-11-28T17:36:47.583Z,15.37
2022-11-28T17:39:15.107Z,15.37
2022-11-28T17:41:42.406Z,14.50
2022-11-28T17:44:30.997Z,13.77
2022-11-28T17:47:01.459Z,12.73
2022-11-28T17:49:29.274Z,12.30
2022-11-28T17:51:57.082Z,12.47
2022-11-28T17:54:25.782Z,12.00
2022-11-28T17:56:53.920Z,11.47
2022-11-28T17:59:23.116Z,11.87
2022-11-28T18:01:50.508Z,9.93
2022-11-28T18:04:23.195Z,9.17
2022-11-28T18:06:50.725Z,8.60
2022-11-28T18:09:17.399Z,7.93
2022-11-28T18:11:46.471Z,7.60
2022-11-28T18:14:13.904Z,7.47
2022-11-28T18:16:43.839Z,8.43
2022-11-28T18:19:10.848Z,9.23
2022-11-28T18:21:38.899Z,9.90
2022-11-28T18:24:06.079Z,10.13
2022-11-28T18:26:32.707Z,8.70
2022-11-28T18:28:59.630Z,7.60
2022-11-28T18:31:29.050Z,7.97
2022-11-28T18:34:02.084Z,8.13
2022-11-28T18:36:35.930Z,7.57
2022-11-28T18:39:05.992Z,7.33
2022-11-28T18:41:33.457Z,9.23
2022-11-28T18:44:02.353Z,9.17
2022-11-28T18:46:30.309Z,9.20
2022-11-28T18:48:57.924Z,8.77
2022-11-28T18:51:26.841Z,9.23
2022-11-28T18:53:55.079Z,9.70
2022-11-28T18:56:23.860Z,9.73
2022-11-28T18:58:52.347Z,9.17
2022-11-28T19:01:30.064Z,8.57
2022-11-28T19:04:05.866Z,8.17
2022-11-28T19:06:34.699Z,7.50
2022-11-28T19:09:04.656Z,7.60
2022-11-28T19:11:32.729Z,7.70
2022-11-28T19:14:00.235Z,8.30
2022-11-28T19:16:30.807Z,8.53
2022-11-28T19:18:58.884Z,7.83
2022-11-28T19:21:28.663Z,9.67
2022-11-28T19:23:56.874Z,9.17
2022-11-28T19:26:25.773Z,8.37
2022-11-28T19:28:53.540Z,7.87
2022-11-28T19:31:23.827Z,8.20
2022-11-28T19:34:00.419Z,8.60
2022-11-28T19:36:33.222Z,8.40
2022-11-28T19:39:00.682Z,7.70
2022-11-28T19:41:28.136Z,8.37
2022-11-28T19:43:56.344Z,7.27
2022-11-28T19:46:23.532Z,6.57
2022-11-28T19:48:51.763Z,6.23
2022-11-28T19:51:21.136Z,5.40
2022-11-28T19:53:48.756Z,5.90
2022-11-28T19:56:18.746Z,5.50
2022-11-28T19:58:46.816Z,5.60
2022-11-28T20:01:17.139Z,5.70
2022-11-28T20:03:47.657Z,6.33
2022-11-28T20:06:23.687Z,6.57
2022-11-28T20:08:51.781Z,6.73
2022-11-28T20:11:25.166Z,7.40
2022-11-28T20:13:57.387Z,7.20
2022-11-28T20:16:25.024Z,9.90
2022-11-28T20:18:53.040Z,10.60
2022-11-28T20:21:21.241Z,10.17
2022-11-28T20:23:53.994Z,9.47
2022-11-28T20:26:25.490Z,9.20
2022-11-28T20:28:55.559Z,8.67
2022-11-28T20:31:34.007Z,8.67
2022-11-28T20:34:01.686Z,8.23
2022-11-28T20:36:30.637Z,8.20
2022-11-28T20:38:58.465Z,8.90
2022-11-28T20:41:27.275Z,8.67
2022-11-28T20:43:54.518Z,8.83
2022-11-28T20:46:25.251Z,8.63
2022-11-28T20:48:52.186Z,8.10
2022-11-28T20:51:23.202Z,8.40
2022-11-28T20:53:50.129Z,8.67
2022-11-28T20:56:31.784Z,8.83
2022-11-28T20:59:00.919Z,8.27
2022-11-28T21:01:34.078Z,8.77
2022-11-28T21:04:06.114Z,8.33
2022-11-28T21:06:33.466Z,8.27
2022-11-28T21:09:00.543Z,8.30
2022-11-28T21:14:15.885Z,8.17
2022-11-28T21:16:43.907Z,8.43
2022-11-28T21:19:11.319Z,8.53
2022-11-28T21:21:39.981Z,8.73
2022-11-28T21:24:12.847Z,8.93
2022-11-28T21:26:44.222Z,9.03
2022-11-28T21:29:15.085Z,10.00
2022-11-28T21:31:44.113Z,10.53
2022-11-28T21:34:15.600Z,10.50
2022-11-28T21:36:42.973Z,10.27
2022-11-28T21:39:13.738Z,9.60
2022-11-28T21:41:40.911Z,10.40
2022-11-28T21:44:08.035Z,9.77
2022-11-28T21:46:34.986Z,11.03
2022-11-28T21:49:02.219Z,11.43
2022-11-28T21:51:29.393Z,10.50
2022-11-28T21:54:00.462Z,10.23
2022-11-28T21:56:27.523Z,10.00
2022-11-28T21:58:54.760Z,10.13
2022-11-28T22:01:24.154Z,11.00
2022-11-28T22:03:53.581Z,11.13
2022-11-28T22:06:25.175Z,11.83
2022-11-28T22:08:54.273Z,11.30
2022-11-28T22:11:22.466Z,12.07
2022-11-28T22:13:50.224Z,12.73
2022-11-28T22:16:20.549Z,12.30
2022-11-28T22:18:49.958Z,12.40
2022-11-28T22:24:06.167Z,11.67
2022-11-28T22:26:34.382Z,10.90
2022-11-28T22:29:04.480Z,9.63
2022-11-28T22:31:33.837Z,9.47
2022-11-28T22:34:01.089Z,8.73
2022-11-28T22:36:28.736Z,8.07
2022-11-28T22:38:57.396Z,8.23
2022-11-28T22:41:28.882Z,8.13
2022-11-28T22:44:01.312Z,8.50
2022-11-28T22:46:31.423Z,8.40
2022-11-28T22:49:00.684Z,8.23
2022-11-28T22:51:29.218Z,7.03
2022-11-28T22:53:59.030Z,8.07
2022-11-28T22:56:28.237Z,7.87
2022-11-28T22:58:55.399Z,8.40
2022-11-28T23:01:26.982Z,6.90
2022-11-28T23:03:54.312Z,7.07
2022-11-28T23:06:25.971Z,7.33
2022-11-28T23:08:55.985Z,7.23
2022-11-28T23:11:28.142Z,6.50
2022-11-28T23:13:55.567Z,6.80
2022-11-28T23:16:28.542Z,6.93
2022-11-28T23:18:58.445Z,6.63
2022-11-28T23:21:28.731Z,7.10
2022-11-28T23:23:55.608Z,7.00
2022-11-28T23:26:25.407Z,7.17
2022-11-28T23:28:53.869Z,7.67
2022-11-28T23:31:26.287Z,7.87
2022-11-28T23:33:54.614Z,8.37
2022-11-28T23:36:25.230Z,7.97
2022-11-28T23:38:56.949Z,7.40
2022-11-28T23:41:24.826Z,7.43
2022-11-28T23:43:51.904Z,7.13
2022-11-28T23:46:20.760Z,7.30
2022-11-28T23:48:48.514Z,7.43
2022-11-28T23:51:17.358Z,7.77
2022-11-28T23:53:44.994Z,8.50
2022-11-28T23:56:14.745Z,7.17
2022-11-28T23:58:42.536Z,7.67
